Victor Silva

Scout - Internacional
2 Sep 2027
Donnerstag
Verarbeitung

Persönlichkeit

Anpassungsfähigkeit (11) Ehrgeiz (14) Kontroverse (6) Loyalität (19) Druck (18) Professionalität (1) Fairness (1) Temperament (10)

Profil

Trainerstil Demokratisch
Lizenz Kontinentale Pro
Entschlossenheit 12
Menschenführung 12
Motivation 13
Disziplin 9
Arbeitszufriedenheit
100%
Ermüdung
0%
Rolle Scout
Gehalt 79.6K p/W
Vertrag 14.03.2029

Leistung

Verhalten Gut
Trainingseffektivität
41%
Spielerentwicklung
30%
Verletzungsprävention
45%
Taktische Umsetzung
35%

Letzte Ereignisse

Nahm an einer Scouting-Besprechung teil 7T her
Nahm an einer Scouting-Besprechung teil 7T her
Nahm an einer Scouting-Besprechung teil 14T her
Nahm an einer Scouting-Besprechung teil 14T her
Nahm an einer Scouting-Besprechung teil 21T her
Nahm an einer Scouting-Besprechung teil 21T her
Sprach sich gegen ein Transferziel aus 21T her
Nahm an einer Scouting-Besprechung teil 28T her

Aktuell beobachtet

92
Spieler Verein Status Fähigkeit Vertrauen Beobachtet Zuletzt beobachtet Letzte Stimme
Giorgian De Arrascaeta Flamengo Aktiv 146 / 135 55% 1 28.06.2027 -
Jorge Ceará Aktiv 106 / 109 55% 1 14.06.2027 -
Mats Wieffer Brighton Aktiv 142 / 152 40% 2 31.05.2027 -
Kyle Walker-Peters West Ham United Aktiv 135 / 141 40% 1 31.05.2027 -
Amine Adli Bournemouth Aktiv 144 / 146 40% 1 30.05.2027 -
Boubacar Kamara Aston Villa Aktiv 162 / 157 40% 1 30.05.2027 -
Nicolas Jackson Aston Villa Abgelehnt 139 / 145 40% 3 27.05.2027 Ablehnen
Xavi Simons Tottenham Aktiv 151 / 152 40% 1 27.05.2027 -
Giorgi Chakvetadze Watford Aktiv 120 / 121 40% 1 25.05.2027 -
Kevin Fulham Aktiv 144 / 157 40% 1 25.05.2027 -
Yankuba Minteh Brighton Aktiv 161 / 161 40% 2 24.05.2027 -
Ethan Galbraith Swansea City Aktiv 128 / 124 40% 2 23.05.2027 -
Luke McNally Bristol City Aktiv 132 / 129 40% 1 23.05.2027 -
Adam Wharton Crystal Palace Aktiv 143 / 147 40% 2 21.05.2027 -
Welington Southampton Aktiv 139 / 125 40% 1 21.05.2027 -
Yehor Yarmoliuk Brentford Aktiv 156 / 151 40% 3 17.05.2027 -
Adrien Truffert Bournemouth Aktiv 159 / 144 40% 1 17.05.2027 Mehr Infos nötig
Tom Fellows Southampton Aktiv 125 / 137 40% 3 14.05.2027 -
Matt O'Riley Brighton Aktiv 142 / 137 40% 1 14.05.2027 -
Shea Charles Southampton Aktiv 141 / 133 40% 4 11.05.2027 -
Dango Ouattara Brentford Aktiv 150 / 139 40% 3 10.05.2027 -
Alexis Saelemaekers AC Milan Aktiv 163 / 144 40% 1 08.05.2027 -
Borja Sainz Fiorentina Aktiv 155 / 141 40% 1 04.05.2027 -
Matías Soulé AS Roma Aktiv 164 / 162 40% 3 03.05.2027 -
Georginio Rutter Brighton Aktiv 141 / 142 40% 1 03.05.2027 -
Nico González Newcastle United Aktiv 153 / 159 40% 1 29.04.2027 -
Curtis Jones Inter Aktiv 157 / 163 40% 2 28.04.2027 -
Florentino Luís Ipswich Town Aktiv 133 / 138 40% 1 28.04.2027 -
Jason Knight Bristol City Aktiv 122 / 134 40% 1 27.04.2027 -
Derry Murkin Derby County Aktiv 127 / 123 40% 2 25.04.2027 -
Callum Doyle Wrexham Aktiv 135 / 135 40% 1 25.04.2027 -
Jacob Ramsey Newcastle United Aktiv 145 / 147 40% 1 23.04.2027 -
Figueiredo Alverca Aktiv 123 / 127 40% 1 23.04.2027 -
Jordan Holsgrove Estoril Praia Aktiv 138 / 124 40% 2 22.04.2027 -
Ryan Sessegnon Fulham Aktiv 149 / 146 40% 1 22.04.2027 -
Giacomo Raspadori Atalanta Aktiv 139 / 148 40% 1 18.04.2027 -
Micky van de Ven Tottenham Aktiv 153 / 159 40% 1 16.04.2027 -
Roberto Fernández Braga Aktiv 137 / 143 40% 3 15.04.2027 -
Gianluca Prestianni Benfica Aktiv 146 / 135 40% 2 14.04.2027 -
Morgan Whittaker Middlesbrough Aktiv 134 / 124 40% 2 14.04.2027 -
Iván Fresneda Sporting CP Aktiv 137 / 143 40% 7 13.04.2027 -
Mario Dorgeles Braga Aktiv 127 / 133 40% 3 13.04.2027 -
Nathan Collins Brentford Aktiv 137 / 139 40% 1 03.04.2027 -
Zeno Debast Sporting CP Aktiv 135 / 140 40% 1 03.04.2027 -
Ozziel Herrera Tigres Aktiv 128 / 127 40% 2 02.04.2027 -
Pau Víctor AVS Aktiv 135 / 146 40% 2 02.04.2027 Mehr Infos nötig
Marcelo Allende Mamelodi Sundowns Aktiv 114 / 128 40% 4 27.03.2027 -
Víctor Gómez Braga Aktiv 144 / 144 40% 1 27.03.2027 -
Christian Krasnodar Aktiv 147 / 128 40% 1 26.03.2027 -
Jacques Ekomié Wrexham Aktiv 129 / 122 40% 1 26.03.2027 -
Francisco Moura Lusitânia Lourosa Aktiv 134 / 137 40% 1 24.03.2027 -
Tino Livramento Newcastle United Aktiv 164 / 151 40% 1 22.03.2027 -
Finn Azaz Southampton Aktiv 135 / 136 40% 1 17.03.2027 -
Kwadwo Baah Watford Aktiv 124 / 135 40% 1 12.03.2027 -
Félix Lemaréchal Club Brugge Aktiv 137 / 129 40% 1 09.03.2027 -
Paulinho Palmeiras Aktiv 150 / 149 40% 1 07.03.2027 -
Santi García Gil Vicente Aktiv 132 / 135 40% 1 04.03.2027 -
Razvan Balasa Crvena Zvezda Aktiv 162 / 140 40% 1 01.03.2027 -
Heorhii Sudakov Benfica Aktiv 141 / 143 40% 1 27.02.2027 -
Luís Guilherme Sporting CP Aktiv 126 / 134 40% 3 14.02.2027 -
Diego Lainez Tigres Aktiv 138 / 136 40% 1 14.02.2027 -
William Gomes Porto Aktiv 134 / 142 40% 2 26.01.2027 -
Erick Sánchez OGC Nice Aktiv 154 / 142 40% 1 22.01.2027 -
Marquinhos Spartak Moscow Aktiv 113 / 137 40% 2 12.01.2027 -
Rémi Lemoine Chamois Niortais Aktiv 165 / 154 40% 1 26.11.2026 -
Cristian Medina Botafogo Aktiv 140 / 135 40% 1 24.11.2026 -
Lucas Duarte Felgueiras Aktiv 114 / 98 40% 1 23.11.2026 -
Yousef Salech Cardiff City Aktiv 137 / 132 40% 1 23.11.2026 -
Yanis Begraoui Estoril Praia Aktiv 123 / 130 40% 3 21.11.2026 -
Vinícius Lopes Santa Clara Aktiv 129 / 119 40% 1 07.11.2026 -
Manu Pozo Torreense Aktiv 132 / 117 40% 2 05.11.2026 -
Pedro Bondo Famalicao Aktiv 125 / 126 40% 1 05.11.2026 -
Martín Tejón Maritimo Aktiv 108 / 122 40% 3 04.11.2026 -
Gustavo Silva Vitoria Guimaraes Aktiv 124 / 124 40% 1 31.10.2026 -
Nicolò Tresoldi Club Brugge Aktiv 121 / 142 40% 1 27.10.2026 -
Gabriel Veron Porto Aktiv 115 / 135 40% 3 17.10.2026 -
Jalen Blesa Rio Ave Aktiv 122 / 127 40% 1 14.10.2026 -
Dawda Camara Alverca Aktiv 108 / 123 40% 1 14.10.2026 -
Vinicinho Bragantino Aktiv 126 / 127 40% 1 12.10.2026 -
Lohann Doucet Vitoria Guimaraes Aktiv 109 / 113 40% 1 12.10.2026 -
Manuel Ospina Cortulua Aktiv 122 / 118 40% 1 11.10.2026 -
Fotis Ioannidis Rio Ave Aktiv 146 / 129 40% 1 11.10.2026 -
Alfonso Trezza Arouca Aktiv 118 / 128 40% 1 09.10.2026 -
Tadeo Allende Inter Miami CF Aktiv 132 / 128 40% 1 05.10.2026 -
Rodrigo Pinheiro Famalicao Aktiv 126 / 137 40% 1 28.09.2026 -
Zé Leite Leixões Aktiv 121 / 123 40% 1 24.09.2026 -
Vangelis Pavlidis Twente Aktiv 152 / 160 40% 1 12.09.2026 -
Elliot Anderson Manchester City Aktiv 149 / 156 40% 1 10.09.2026 -
Mathias De Amorim Famalicao Aktiv 118 / 142 40% 2 08.09.2026 -
Victor Froholdt Porto Aktiv 143 / 151 40% 1 30.08.2026 -
Diogo Travassos Braga Aktiv 110 / 121 40% 1 01.08.2026 -
Alberto Costa Porto Aktiv 128 / 146 40% 1 01.08.2026 -